createdAt,value
2022-09-22T00:01:32.829Z,100.00
2022-09-22T00:04:04.578Z,100.00
2022-09-22T00:06:39.023Z,100.00
2022-09-22T00:09:10.692Z,100.00
2022-09-22T00:11:47.622Z,100.00
2022-09-22T00:14:21.582Z,100.00
2022-09-22T00:17:00.577Z,100.00
2022-09-22T00:19:31.216Z,100.00
2022-09-22T00:21:59.538Z,100.00
2022-09-22T00:24:28.372Z,100.00
2022-09-22T00:26:57.865Z,100.00
2022-09-22T00:29:27.419Z,100.00
2022-09-22T00:31:55.998Z,100.00
2022-09-22T00:34:26.515Z,100.00
2022-09-22T00:36:55.153Z,100.00
2022-09-22T00:39:23.248Z,100.00
2022-09-22T00:41:52.883Z,100.00
2022-09-22T00:44:26.516Z,100.00
2022-09-22T00:47:03.793Z,100.00
2022-09-22T00:49:46.793Z,100.00
2022-09-22T00:52:22.398Z,100.00
2022-09-22T00:54:52.731Z,100.00
2022-09-22T00:57:24.621Z,100.00
2022-09-22T00:59:54.548Z,100.00
2022-09-22T01:02:22.457Z,100.00
2022-09-22T01:04:52.151Z,100.00
2022-09-22T01:07:23.120Z,100.00
2022-09-22T01:09:50.979Z,100.00
2022-09-22T01:12:19.963Z,100.00
2022-09-22T01:15:05.430Z,100.00
2022-09-22T01:18:06.575Z,100.00
2022-09-22T01:20:53.028Z,100.00
2022-09-22T01:23:35.918Z,100.00
2022-09-22T01:26:35.901Z,100.00
2022-09-22T01:29:31.733Z,100.00
2022-09-22T01:32:12.062Z,100.00
2022-09-22T01:34:52.364Z,100.00
2022-09-22T01:37:25.309Z,100.00
2022-09-22T01:40:01.369Z,100.00
2022-09-22T01:42:42.165Z,100.00
2022-09-22T01:45:14.379Z,100.00
2022-09-22T01:47:51.136Z,100.00
2022-09-22T01:50:25.667Z,100.00
2022-09-22T01:52:59.445Z,100.00
2022-09-22T01:55:37.599Z,100.00
2022-09-22T01:58:12.645Z,100.00
2022-09-22T02:00:47.947Z,100.00
2022-09-22T02:03:45.296Z,100.00
2022-09-22T02:06:18.512Z,100.00
2022-09-22T02:08:56.359Z,100.00
2022-09-22T02:11:24.595Z,100.00
2022-09-22T02:13:52.840Z,100.00
2022-09-22T02:16:22.777Z,100.00
2022-09-22T02:18:56.331Z,100.00
2022-09-22T02:21:28.080Z,100.00
2022-09-22T02:23:56.094Z,100.00
2022-09-22T02:26:28.623Z,100.00
2022-09-22T02:29:01.231Z,100.00
2022-09-22T02:31:33.354Z,100.00
2022-09-22T02:34:03.002Z,100.00
2022-09-22T02:36:42.094Z,100.00
2022-09-22T02:39:23.826Z,100.00
2022-09-22T02:41:54.245Z,100.00
2022-09-22T02:44:36.079Z,100.00
2022-09-22T02:47:12.835Z,100.00
2022-09-22T02:49:43.776Z,100.00
2022-09-22T02:52:13.894Z,100.00
2022-09-22T02:54:41.558Z,100.00
2022-09-22T02:57:10.043Z,100.00
2022-09-22T02:59:37.827Z,100.00
2022-09-22T03:02:06.119Z,100.00
2022-09-22T03:04:34.385Z,100.00
2022-09-22T03:07:02.133Z,100.00
2022-09-22T03:09:29.947Z,100.00
2022-09-22T03:11:57.583Z,100.00
2022-09-22T03:14:25.572Z,100.00
2022-09-22T03:16:53.461Z,100.00
2022-09-22T03:19:22.168Z,100.00
2022-09-22T03:21:49.604Z,100.00
2022-09-22T03:24:17.294Z,100.00
2022-09-22T03:26:44.989Z,100.00
2022-09-22T03:29:12.438Z,100.00
2022-09-22T03:31:39.929Z,100.00
2022-09-22T03:34:08.300Z,100.00
2022-09-22T03:36:36.202Z,100.00
2022-09-22T03:39:04.427Z,100.00
2022-09-22T03:41:32.302Z,100.00
2022-09-22T03:44:00.035Z,100.00
2022-09-22T03:46:27.780Z,100.00
2022-09-22T03:48:55.575Z,100.00
2022-09-22T03:51:23.341Z,100.00
2022-09-22T03:53:50.969Z,100.00
2022-09-22T03:56:18.371Z,100.00
2022-09-22T03:58:46.174Z,100.00
2022-09-22T04:01:13.789Z,100.00
2022-09-22T04:03:41.283Z,100.00
2022-09-22T04:06:10.455Z,100.00
2022-09-22T04:08:39.433Z,100.00
2022-09-22T04:11:07.687Z,100.00
2022-09-22T04:13:36.981Z,100.00
2022-09-22T04:16:06.144Z,100.00
2022-09-22T04:18:34.129Z,100.00
2022-09-22T04:21:02.021Z,100.00
2022-09-22T04:23:30.875Z,100.00
2022-09-22T04:30:01.016Z,100.00
2022-09-22T04:32:28.650Z,100.00
2022-09-22T04:34:56.271Z,100.00
2022-09-22T04:37:24.381Z,100.00
2022-09-22T04:39:54.505Z,100.00
2022-09-22T04:42:22.268Z,100.00
2022-09-22T04:44:49.907Z,100.00
2022-09-22T04:47:18.267Z,100.00
2022-09-22T04:49:46.482Z,100.00
2022-09-22T04:52:14.742Z,100.00
2022-09-22T04:54:42.296Z,100.00
2022-09-22T04:57:10.235Z,100.00
2022-09-22T04:59:46.807Z,100.00
2022-09-22T05:02:14.868Z,100.00
2022-09-22T05:04:44.129Z,100.00
2022-09-22T05:07:15.185Z,100.00
2022-09-22T05:09:44.392Z,100.00
2022-09-22T05:12:12.073Z,100.00
2022-09-22T05:14:40.287Z,100.00
2022-09-22T05:17:08.031Z,100.00
2022-09-22T05:19:36.612Z,100.00
2022-09-22T05:22:04.362Z,100.00
2022-09-22T05:24:32.704Z,100.00
2022-09-22T05:27:00.538Z,100.00
2022-09-22T05:29:28.262Z,100.00
2022-09-22T05:31:56.007Z,100.00
2022-09-22T05:34:23.772Z,100.00
2022-09-22T05:36:51.326Z,100.00
2022-09-22T05:39:19.210Z,100.00
2022-09-22T05:41:50.053Z,100.00
2022-09-22T05:44:17.779Z,100.00
2022-09-22T05:46:46.968Z,100.00
2022-09-22T05:49:14.611Z,100.00
2022-09-22T05:51:42.472Z,100.00
2022-09-22T05:54:10.330Z,100.00
2022-09-22T05:56:39.394Z,100.00
2022-09-22T05:59:07.120Z,100.00
2022-09-22T06:01:38.634Z,100.00
2022-09-22T06:04:06.622Z,100.00
2022-09-22T06:06:34.440Z,100.00
2022-09-22T06:09:02.848Z,100.00
2022-09-22T06:11:31.404Z,100.00
2022-09-22T06:13:59.275Z,100.00
2022-09-22T06:16:26.998Z,100.00
2022-09-22T06:18:55.258Z,100.00
2022-09-22T06:21:25.077Z,100.00
2022-09-22T06:23:53.355Z,100.00
2022-09-22T06:26:21.080Z,100.00
2022-09-22T06:28:50.223Z,100.00
2022-09-22T06:31:17.892Z,100.00
2022-09-22T06:33:48.911Z,99.00
2022-09-22T06:36:23.567Z,100.00
2022-09-22T06:41:34.296Z,98.42
2022-09-22T06:44:02.879Z,97.72
2022-09-22T06:46:34.597Z,96.40
2022-09-22T06:49:03.024Z,96.56
2022-09-22T06:51:33.220Z,94.29
2022-09-22T06:54:09.976Z,94.55
2022-09-22T06:56:43.039Z,92.45
2022-09-22T06:59:13.176Z,91.95
2022-09-22T07:01:42.261Z,90.54
2022-09-22T07:04:12.061Z,90.29
2022-09-22T07:06:40.826Z,90.99
2022-09-22T07:09:09.648Z,89.56
2022-09-22T07:11:40.945Z,85.16
2022-09-22T07:14:22.037Z,83.94
2022-09-22T07:16:53.095Z,85.59
2022-09-22T07:19:20.954Z,88.23
2022-09-22T07:21:48.665Z,87.57
2022-09-22T07:24:17.058Z,87.24
2022-09-22T07:26:46.926Z,85.90
2022-09-22T07:29:16.892Z,86.09
2022-09-22T07:31:44.810Z,84.00
2022-09-22T07:34:13.806Z,83.81
2022-09-22T07:36:41.806Z,82.57
2022-09-22T07:39:11.340Z,80.54
2022-09-22T07:41:43.816Z,79.96
2022-09-22T07:44:32.401Z,78.01
2022-09-22T07:47:01.245Z,76.88
2022-09-22T07:49:29.688Z,73.60
2022-09-22T07:51:57.890Z,73.57
2022-09-22T07:54:27.697Z,75.15
2022-09-22T07:57:05.654Z,72.13
2022-09-22T07:59:34.179Z,68.56
2022-09-22T08:02:02.134Z,69.52
2022-09-22T08:04:32.094Z,64.91
2022-09-22T08:07:00.455Z,64.06
2022-09-22T08:09:29.848Z,65.19
2022-09-22T08:11:57.674Z,63.53
2022-09-22T08:14:26.516Z,61.65
2022-09-22T08:16:54.212Z,64.32
2022-09-22T08:19:25.170Z,68.00
2022-09-22T08:21:54.616Z,67.07
2022-09-22T08:24:23.782Z,67.49
2022-09-22T08:26:56.514Z,64.28
2022-09-22T08:29:25.296Z,62.87
2022-09-22T08:31:55.607Z,61.24
2022-09-22T08:34:24.034Z,61.65
2022-09-22T08:36:52.655Z,60.03
2022-09-22T08:39:20.456Z,60.24
2022-09-22T08:42:29.950Z,59.16
2022-09-22T08:45:11.719Z,58.06
2022-09-22T08:48:08.423Z,58.04
2022-09-22T08:51:08.944Z,56.57
2022-09-22T08:53:45.521Z,57.99
2022-09-22T08:56:30.703Z,57.41
2022-09-22T08:59:27.621Z,56.93
2022-09-22T09:02:32.999Z,55.61
2022-09-22T09:05:03.861Z,56.76
2022-09-22T09:08:00.584Z,56.39
2022-09-22T09:10:56.665Z,58.46
2022-09-22T09:13:37.851Z,57.90
2022-09-22T09:16:26.027Z,57.87
2022-09-22T09:19:04.567Z,55.88
2022-09-22T09:21:36.743Z,56.54
2022-09-22T09:27:12.775Z,55.79
2022-09-22T09:29:51.694Z,54.35
2022-09-22T09:32:36.887Z,50.90
2022-09-22T09:35:12.686Z,50.49
2022-09-22T09:37:52.883Z,51.33
2022-09-22T09:40:22.412Z,49.98
2022-09-22T09:43:04.051Z,49.82
2022-09-22T09:45:53.768Z,50.52
2022-09-22T09:48:35.434Z,52.02
2022-09-22T09:51:11.792Z,51.61
2022-09-22T09:53:46.660Z,52.19
2022-09-22T09:56:24.986Z,52.84
2022-09-22T09:59:20.993Z,48.55
2022-09-22T10:01:51.227Z,49.03
2022-09-22T10:04:32.698Z,48.14
2022-09-22T10:07:16.953Z,48.28
2022-09-22T10:09:51.259Z,48.91
2022-09-22T10:12:31.288Z,46.21
2022-09-22T10:15:01.613Z,43.53
2022-09-22T10:17:41.105Z,41.91
2022-09-22T10:20:26.532Z,43.59
2022-09-22T10:22:55.995Z,45.15
2022-09-22T10:25:33.305Z,45.36
2022-09-22T10:28:17.072Z,47.36
2022-09-22T10:30:59.165Z,47.63
2022-09-22T10:33:28.630Z,47.76
2022-09-22T10:36:07.861Z,48.15
2022-09-22T10:38:43.973Z,48.04
2022-09-22T10:41:18.115Z,47.09
2022-09-22T10:44:15.555Z,46.87
2022-09-22T10:47:15.536Z,45.46
2022-09-22T10:50:06.053Z,45.42
2022-09-22T10:52:58.244Z,44.60
2022-09-22T10:55:36.135Z,46.97
2022-09-22T10:58:25.804Z,43.49
2022-09-22T11:01:09.486Z,44.90
2022-09-22T11:03:40.389Z,43.66
2022-09-22T11:06:54.233Z,43.16
2022-09-22T11:10:09.345Z,44.12
2022-09-22T11:13:03.659Z,43.78
2022-09-22T11:15:38.007Z,45.56
2022-09-22T11:18:23.886Z,46.19
2022-09-22T11:21:10.153Z,45.46
2022-09-22T11:23:50.557Z,45.05
2022-09-22T11:26:59.945Z,44.12
2022-09-22T11:29:55.560Z,44.61
2022-09-22T11:32:32.983Z,45.23
2022-09-22T11:35:12.774Z,45.32
2022-09-22T11:37:55.580Z,45.81
2022-09-22T11:41:18.948Z,45.73
2022-09-22T11:44:30.790Z,48.29
2022-09-22T11:54:50.354Z,49.34
2022-09-22T11:57:24.074Z,48.95
2022-09-22T12:00:01.893Z,48.62
2022-09-22T12:02:44.538Z,49.80
2022-09-22T12:11:42.192Z,52.85
2022-09-22T12:14:25.894Z,53.54
2022-09-22T12:17:02.121Z,54.38
2022-09-22T12:19:35.477Z,56.15
2022-09-22T12:22:24.701Z,55.99
2022-09-22T12:24:55.720Z,56.92
2022-09-22T12:27:39.824Z,58.72
2022-09-22T12:30:22.958Z,56.65
2022-09-22T12:32:51.840Z,56.76
2022-09-22T12:35:31.041Z,58.51
2022-09-22T12:38:04.520Z,57.83
2022-09-22T12:40:42.527Z,56.67
2022-09-22T12:43:21.851Z,57.69
2022-09-22T12:45:51.452Z,57.86
2022-09-22T12:48:36.413Z,57.36
2022-09-22T12:51:36.282Z,56.13
2022-09-22T12:54:22.806Z,57.27
2022-09-22T12:56:59.157Z,57.08
2022-09-22T12:59:36.414Z,57.68
2022-09-22T13:02:31.997Z,58.53
2022-09-22T13:05:00.532Z,58.68
2022-09-22T13:07:43.415Z,59.12
2022-09-22T13:10:24.305Z,58.76
2022-09-22T13:13:01.989Z,58.80
2022-09-22T13:15:52.097Z,59.92
2022-09-22T13:18:39.542Z,60.20
2022-09-22T13:21:13.983Z,59.41
2022-09-22T13:23:58.284Z,59.78
2022-09-22T13:26:26.530Z,59.61
2022-09-22T13:29:06.299Z,60.49
2022-09-22T13:31:41.782Z,59.70
2022-09-22T13:34:37.689Z,59.42
2022-09-22T13:37:09.127Z,59.84
2022-09-22T13:39:47.160Z,60.11
2022-09-22T13:42:37.213Z,59.58
2022-09-22T13:45:24.720Z,59.80
2022-09-22T13:48:07.538Z,59.07
2022-09-22T13:50:56.360Z,59.63
2022-09-22T13:53:25.653Z,58.99
2022-09-22T13:55:54.113Z,58.23
2022-09-22T13:58:44.573Z,58.31
2022-09-22T14:01:28.097Z,58.95
2022-09-22T14:04:00.156Z,58.40
2022-09-22T14:06:34.012Z,59.81
2022-09-22T14:09:03.879Z,59.04
2022-09-22T14:11:33.552Z,60.63
2022-09-22T14:14:03.208Z,60.76
2022-09-22T14:16:39.667Z,61.20
2022-09-22T14:19:08.811Z,60.60
2022-09-22T14:22:17.698Z,62.47
2022-09-22T14:24:50.154Z,62.17
2022-09-22T14:27:47.631Z,62.09
2022-09-22T14:30:21.075Z,62.96
2022-09-22T14:32:57.164Z,62.26
2022-09-22T14:35:30.439Z,62.50
2022-09-22T14:38:15.927Z,62.08
2022-09-22T14:41:16.617Z,63.26
2022-09-22T14:43:45.887Z,63.47
2022-09-22T14:46:28.775Z,63.64
2022-09-22T14:48:57.832Z,63.87
2022-09-22T14:51:27.269Z,64.84
2022-09-22T14:54:04.043Z,64.42
2022-09-22T14:56:34.560Z,64.41
2022-09-22T14:59:27.681Z,64.36
2022-09-22T15:02:15.221Z,66.51
2022-09-22T15:04:49.342Z,65.90
2022-09-22T15:07:29.930Z,65.50
2022-09-22T15:10:05.209Z,66.86
2022-09-22T15:12:38.145Z,67.87
2022-09-22T15:15:23.171Z,66.18
2022-09-22T15:18:16.084Z,67.12
2022-09-22T15:20:46.851Z,67.80
2022-09-22T15:23:17.457Z,68.44
2022-09-22T15:25:45.974Z,68.85
2022-09-22T15:28:20.679Z,70.24
2022-09-22T15:30:50.660Z,70.24
2022-09-22T15:33:20.244Z,71.64
2022-09-22T15:36:02.190Z,71.86
2022-09-22T15:38:33.327Z,71.85
2022-09-22T15:41:02.111Z,71.54
2022-09-22T15:43:33.281Z,72.21
2022-09-22T15:46:03.690Z,72.22
2022-09-22T15:48:39.767Z,72.73
2022-09-22T15:51:13.949Z,73.16
2022-09-22T15:53:43.925Z,74.26
2022-09-22T15:56:21.022Z,75.19
2022-09-22T15:58:53.520Z,74.73
2022-09-22T16:01:22.334Z,76.14
2022-09-22T16:03:56.472Z,75.00
2022-09-22T16:06:25.225Z,76.19
2022-09-22T16:08:55.671Z,75.90
2022-09-22T16:11:31.762Z,75.25
2022-09-22T16:14:06.642Z,75.18
2022-09-22T16:16:37.053Z,76.14
2022-09-22T16:19:09.658Z,75.24
2022-09-22T16:21:45.636Z,75.68
2022-09-22T16:24:15.093Z,76.19
2022-09-22T16:30:21.962Z,75.87
2022-09-22T16:33:04.820Z,76.98
2022-09-22T16:35:38.368Z,75.59
2022-09-22T16:38:08.210Z,75.98
2022-09-22T16:40:37.219Z,76.06
2022-09-22T16:43:08.106Z,76.97
2022-09-22T16:45:57.907Z,78.49
2022-09-22T16:48:26.254Z,77.55
2022-09-22T16:50:55.721Z,77.91
2022-09-22T16:53:24.892Z,77.74
2022-09-22T16:55:53.535Z,78.14
2022-09-22T16:58:22.322Z,77.82
2022-09-22T17:00:50.557Z,78.27
2022-09-22T17:06:43.835Z,78.75
2022-09-22T17:09:14.962Z,78.30
2022-09-22T17:11:46.605Z,77.83
2022-09-22T17:17:14.768Z,78.81
2022-09-22T17:19:48.878Z,78.37
2022-09-22T17:22:23.588Z,79.04
2022-09-22T17:24:52.637Z,79.31
2022-09-22T17:27:29.064Z,79.22
2022-09-22T17:29:58.678Z,79.35
2022-09-22T17:32:29.809Z,78.66
2022-09-22T17:35:13.180Z,78.23
2022-09-22T17:37:45.123Z,78.68
2022-09-22T17:45:52.084Z,80.18
2022-09-22T17:52:05.168Z,80.91
2022-09-22T17:57:54.348Z,80.67
2022-09-22T18:00:30.719Z,80.01
2022-09-22T18:03:12.709Z,81.54
2022-09-22T18:25:20.578Z,84.50
2022-09-22T18:27:53.283Z,85.97
2022-09-22T18:30:26.564Z,85.21
2022-09-22T18:32:59.063Z,85.62
2022-09-22T18:38:29.296Z,84.06
2022-09-22T18:41:03.052Z,83.86
2022-09-22T18:43:46.315Z,85.16
2022-09-22T18:46:24.503Z,84.65
2022-09-22T18:49:06.730Z,85.11
2022-09-22T18:51:42.990Z,85.15
2022-09-22T18:54:17.438Z,85.09
2022-09-22T19:20:51.726Z,87.64
2022-09-22T19:23:21.948Z,87.86
2022-09-22T19:25:52.158Z,88.23
2022-09-22T19:28:20.308Z,88.99
2022-09-22T19:30:51.329Z,89.81
2022-09-22T19:33:19.483Z,90.85
2022-09-22T19:35:47.538Z,90.34
2022-09-22T19:38:16.541Z,90.53
2022-09-22T19:40:44.712Z,90.55
2022-09-22T19:43:12.850Z,92.02
2022-09-22T19:45:41.722Z,91.38
2022-09-22T19:48:13.561Z,91.38
2022-09-22T19:50:43.332Z,92.22
2022-09-22T19:53:11.790Z,92.32
2022-09-22T19:55:40.265Z,92.79
2022-09-22T19:58:08.030Z,94.03
2022-09-22T20:00:36.628Z,94.84
2022-09-22T20:03:04.713Z,94.34
2022-09-22T20:05:38.601Z,93.53
2022-09-22T20:08:15.894Z,93.65
2022-09-22T20:10:47.326Z,93.93
2022-09-22T20:13:34.225Z,95.24
2022-09-22T20:16:04.166Z,95.30
2022-09-22T20:18:35.568Z,95.71
2022-09-22T20:24:04.580Z,96.96
2022-09-22T20:26:34.012Z,97.23
2022-09-22T20:29:02.380Z,96.18
2022-09-22T20:31:30.251Z,96.79
2022-09-22T20:33:58.489Z,97.21
2022-09-22T20:36:27.367Z,96.38
2022-09-22T20:38:55.179Z,97.56
2022-09-22T20:41:23.824Z,97.59
2022-09-22T20:43:52.197Z,97.24
2022-09-22T20:46:20.682Z,95.67
2022-09-22T20:48:49.006Z,96.02
2022-09-22T20:51:19.069Z,96.55
2022-09-22T20:53:50.656Z,96.33
2022-09-22T20:56:18.507Z,96.81
2022-09-22T20:58:46.822Z,96.22
2022-09-22T21:01:17.061Z,96.18
2022-09-22T21:03:46.034Z,95.84
2022-09-22T21:06:15.973Z,96.08
2022-09-22T21:09:02.680Z,95.98
2022-09-22T21:11:31.305Z,95.65
2022-09-22T21:14:03.318Z,94.35
2022-09-22T21:16:36.394Z,94.73
2022-09-22T21:19:04.670Z,94.08
2022-09-22T21:21:33.967Z,93.75
2022-09-22T21:24:02.166Z,92.80
2022-09-22T21:26:31.217Z,92.63
2022-09-22T21:29:00.772Z,92.87
2022-09-22T21:31:29.104Z,91.41
2022-09-22T21:33:57.183Z,91.50
2022-09-22T21:36:25.361Z,90.58
2022-09-22T21:38:58.108Z,90.29
2022-09-22T21:41:28.776Z,89.81
2022-09-22T21:43:56.609Z,89.61
2022-09-22T21:46:29.867Z,90.21
2022-09-22T21:49:02.841Z,90.64
2022-09-22T21:51:36.916Z,91.65
2022-09-22T21:54:05.759Z,90.98
2022-09-22T21:56:34.778Z,91.75
2022-09-22T21:59:03.747Z,91.61
2022-09-22T22:01:38.958Z,91.68
2022-09-22T22:04:13.994Z,92.08
2022-09-22T22:06:44.432Z,92.70
2022-09-22T22:09:19.700Z,92.16
2022-09-22T22:11:56.708Z,93.77
2022-09-22T22:14:28.309Z,94.24
2022-09-22T22:16:56.168Z,94.21
2022-09-22T22:19:27.109Z,94.72
2022-09-22T22:21:55.488Z,97.07
2022-09-22T22:24:30.387Z,95.86
2022-09-22T22:27:06.554Z,95.67
2022-09-22T22:29:35.186Z,95.59
2022-09-22T22:32:05.548Z,95.97
2022-09-22T22:34:33.878Z,96.07
2022-09-22T22:37:01.676Z,95.87
2022-09-22T22:39:30.019Z,96.03
2022-09-22T22:41:58.075Z,95.90
2022-09-22T22:44:25.806Z,96.08
2022-09-22T22:46:53.652Z,96.19
2022-09-22T22:49:21.656Z,96.36
2022-09-22T22:51:50.172Z,96.17
2022-09-22T22:54:17.941Z,96.00
2022-09-22T22:56:49.011Z,95.86
2022-09-22T22:59:19.347Z,95.94
2022-09-22T23:01:46.963Z,96.20
2022-09-22T23:04:16.901Z,95.95
2022-09-22T23:06:47.990Z,95.88
2022-09-22T23:09:17.014Z,95.78
2022-09-22T23:11:46.508Z,95.65
2022-09-22T23:14:16.466Z,96.26
2022-09-22T23:16:47.176Z,96.77
2022-09-22T23:19:17.750Z,96.34
2022-09-22T23:21:46.505Z,95.65
2022-09-22T23:24:16.737Z,95.92
2022-09-22T23:26:47.911Z,96.79
2022-09-22T23:29:15.743Z,97.86
2022-09-22T23:31:44.046Z,98.68
2022-09-22T23:34:11.614Z,98.73
2022-09-22T23:36:39.904Z,99.88
2022-09-22T23:39:07.554Z,99.62
2022-09-22T23:41:37.044Z,99.75
2022-09-22T23:44:09.617Z,100.00
2022-09-22T23:46:38.490Z,100.00
2022-09-22T23:49:06.555Z,100.00
2022-09-22T23:51:35.739Z,100.00
2022-09-22T23:54:03.317Z,100.00
2022-09-22T23:56:37.676Z,100.00
2022-09-22T23:59:05.544Z,100.00
